sensor_id;sensor_type;location;lat;lon;timestamp;pressure;altitude;pressure_sealevel;temperature;humidity
60589;BME280;46421;48.610;9.334;2023-02-28T00:01:18;98638.31;;;-1.55;60.71
60589;BME280;46421;48.610;9.334;2023-02-28T00:03:44;98639.41;;;-1.59;60.32
60589;BME280;46421;48.610;9.334;2023-02-28T00:06:09;98627.06;;;-1.71;60.77
60589;BME280;46421;48.610;9.334;2023-02-28T00:08:35;98640.75;;;-1.84;61.25
60589;BME280;46421;48.610;9.334;2023-02-28T00:11:12;98634.28;;;-1.77;61.28
60589;BME280;46421;48.610;9.334;2023-02-28T00:13:41;98644.06;;;-1.64;60.80
60589;BME280;46421;48.610;9.334;2023-02-28T00:16:10;98637.16;;;-1.65;60.62
60589;BME280;46421;48.610;9.334;2023-02-28T00:18:36;98645.91;;;-1.66;60.95
60589;BME280;46421;48.610;9.334;2023-02-28T00:21:01;98640.34;;;-1.60;60.84
60589;BME280;46421;48.610;9.334;2023-02-28T00:23:27;98626.97;;;-1.70;61.30
60589;BME280;46421;48.610;9.334;2023-02-28T00:25:53;98631.94;;;-1.65;61.41
60589;BME280;46421;48.610;9.334;2023-02-28T00:28:19;98643.38;;;-1.68;61.32
60589;BME280;46421;48.610;9.334;2023-02-28T00:30:45;98631.09;;;-1.82;61.65
60589;BME280;46421;48.610;9.334;2023-02-28T00:33:10;98622.19;;;-1.78;61.57
60589;BME280;46421;48.610;9.334;2023-02-28T00:35:36;98630.59;;;-1.72;62.08
60589;BME280;46421;48.610;9.334;2023-02-28T00:38:01;98638.00;;;-1.81;62.10
60589;BME280;46421;48.610;9.334;2023-02-28T00:40:27;98633.03;;;-1.85;61.75
60589;BME280;46421;48.610;9.334;2023-02-28T00:42:53;98633.53;;;-1.95;62.08
60589;BME280;46421;48.610;9.334;2023-02-28T00:45:18;98641.19;;;-1.92;63.01
60589;BME280;46421;48.610;9.334;2023-02-28T00:47:44;98627.91;;;-1.87;62.88
60589;BME280;46421;48.610;9.334;2023-02-28T00:50:11;98639.69;;;-1.80;61.87
60589;BME280;46421;48.610;9.334;2023-02-28T00:52:36;98637.66;;;-1.75;62.20
60589;BME280;46421;48.610;9.334;2023-02-28T00:55:02;98636.13;;;-1.79;63.13
60589;BME280;46421;48.610;9.334;2023-02-28T00:57:27;98634.97;;;-1.73;62.08
60589;BME280;46421;48.610;9.334;2023-02-28T00:59:53;98633.78;;;-1.67;62.69
60589;BME280;46421;48.610;9.334;2023-02-28T01:02:22;98631.03;;;-1.64;61.73
60589;BME280;46421;48.610;9.334;2023-02-28T01:04:48;98625.28;;;-1.71;61.76
60589;BME280;46421;48.610;9.334;2023-02-28T01:07:14;98629.06;;;-1.77;63.76
60589;BME280;46421;48.610;9.334;2023-02-28T01:09:40;98620.34;;;-1.76;62.79
60589;BME280;46421;48.610;9.334;2023-02-28T01:12:07;98631.78;;;-1.78;63.11
60589;BME280;46421;48.610;9.334;2023-02-28T01:14:33;98627.22;;;-1.75;62.70
60589;BME280;46421;48.610;9.334;2023-02-28T01:16:58;98630.75;;;-1.76;63.08
60589;BME280;46421;48.610;9.334;2023-02-28T01:19:23;98628.16;;;-1.92;63.86
60589;BME280;46421;48.610;9.334;2023-02-28T01:21:49;98630.41;;;-1.69;62.89
60589;BME280;46421;48.610;9.334;2023-02-28T01:24:14;98633.72;;;-1.82;62.88
60589;BME280;46421;48.610;9.334;2023-02-28T01:26:40;98628.22;;;-1.61;62.63
60589;BME280;46421;48.610;9.334;2023-02-28T01:29:05;98618.50;;;-1.73;63.76
60589;BME280;46421;48.610;9.334;2023-02-28T01:31:31;98607.38;;;-1.61;63.07
60589;BME280;46421;48.610;9.334;2023-02-28T01:33:56;98615.22;;;-1.77;63.18
60589;BME280;46421;48.610;9.334;2023-02-28T01:36:23;98626.53;;;-1.62;62.97
60589;BME280;46421;48.610;9.334;2023-02-28T01:38:49;98628.75;;;-1.54;62.76
60589;BME280;46421;48.610;9.334;2023-02-28T01:41:24;98612.66;;;-1.79;63.38
60589;BME280;46421;48.610;9.334;2023-02-28T01:43:56;98618.31;;;-1.54;63.17
60589;BME280;46421;48.610;9.334;2023-02-28T01:46:24;98606.63;;;-1.79;63.83
60589;BME280;46421;48.610;9.334;2023-02-28T01:49:09;98611.75;;;-1.78;64.40
60589;BME280;46421;48.610;9.334;2023-02-28T01:51:48;98610.22;;;-1.66;64.36
60589;BME280;46421;48.610;9.334;2023-02-28T01:54:22;98594.09;;;-1.72;64.17
60589;BME280;46421;48.610;9.334;2023-02-28T01:56:56;98597.13;;;-1.64;63.85
60589;BME280;46421;48.610;9.334;2023-02-28T01:59:30;98602.50;;;-1.67;63.97
60589;BME280;46421;48.610;9.334;2023-02-28T02:01:57;98600.50;;;-1.78;64.59
60589;BME280;46421;48.610;9.334;2023-02-28T02:04:25;98612.00;;;-1.82;64.92
60589;BME280;46421;48.610;9.334;2023-02-28T02:06:52;98607.56;;;-1.64;64.67
60589;BME280;46421;48.610;9.334;2023-02-28T02:09:17;98592.91;;;-1.67;64.13
60589;BME280;46421;48.610;9.334;2023-02-28T02:11:44;98601.31;;;-1.78;65.11
60589;BME280;46421;48.610;9.334;2023-02-28T02:14:12;98597.03;;;-1.63;64.54
60589;BME280;46421;48.610;9.334;2023-02-28T02:25:24;98583.13;;;-1.63;64.62
60589;BME280;46421;48.610;9.334;2023-02-28T02:30:56;98572.38;;;-1.57;64.69
60589;BME280;46421;48.610;9.334;2023-02-28T02:38:53;98569.22;;;-1.78;65.50
60589;BME280;46421;48.610;9.334;2023-02-28T02:41:28;98566.00;;;-1.67;65.80
60589;BME280;46421;48.610;9.334;2023-02-28T02:44:02;98567.44;;;-1.78;65.44
60589;BME280;46421;48.610;9.334;2023-02-28T02:46:32;98563.50;;;-1.69;65.87
60589;BME280;46421;48.610;9.334;2023-02-28T02:49:00;98572.13;;;-1.68;66.10
60589;BME280;46421;48.610;9.334;2023-02-28T02:51:30;98577.28;;;-1.83;66.62
60589;BME280;46421;48.610;9.334;2023-02-28T02:54:20;98576.94;;;-1.77;66.42
60589;BME280;46421;48.610;9.334;2023-02-28T02:56:48;98576.78;;;-1.73;66.17
60589;BME280;46421;48.610;9.334;2023-02-28T02:59:18;98580.16;;;-1.71;66.71
60589;BME280;46421;48.610;9.334;2023-02-28T03:01:50;98581.97;;;-1.57;66.04
60589;BME280;46421;48.610;9.334;2023-02-28T03:04:21;98574.75;;;-1.52;66.36
60589;BME280;46421;48.610;9.334;2023-02-28T03:06:47;98582.88;;;-1.59;66.13
60589;BME280;46421;48.610;9.334;2023-02-28T03:09:12;98585.00;;;-1.81;67.00
60589;BME280;46421;48.610;9.334;2023-02-28T03:11:40;98582.31;;;-1.64;66.33
60589;BME280;46421;48.610;9.334;2023-02-28T03:17:07;98590.69;;;-1.42;65.44
60589;BME280;46421;48.610;9.334;2023-02-28T03:19:55;98592.81;;;-1.49;66.32
60589;BME280;46421;48.610;9.334;2023-02-28T03:24:58;98582.28;;;-1.48;66.45
60589;BME280;46421;48.610;9.334;2023-02-28T03:27:43;98584.63;;;-1.43;66.18
60589;BME280;46421;48.610;9.334;2023-02-28T03:32:42;98581.59;;;-1.35;65.68
60589;BME280;46421;48.610;9.334;2023-02-28T03:35:13;98587.34;;;-1.45;65.93
60589;BME280;46421;48.610;9.334;2023-02-28T03:37:42;98587.34;;;-1.45;66.20
60589;BME280;46421;48.610;9.334;2023-02-28T03:40:16;98575.41;;;-1.49;67.03
60589;BME280;46421;48.610;9.334;2023-02-28T03:42:45;98570.63;;;-1.26;65.92
60589;BME280;46421;48.610;9.334;2023-02-28T03:45:16;98568.97;;;-1.43;66.26
60589;BME280;46421;48.610;9.334;2023-02-28T03:47:52;98580.66;;;-1.34;66.46
60589;BME280;46421;48.610;9.334;2023-02-28T03:50:34;98577.97;;;-1.33;66.13
60589;BME280;46421;48.610;9.334;2023-02-28T03:53:21;98578.13;;;-1.36;65.99
60589;BME280;46421;48.610;9.334;2023-02-28T03:55:52;98583.44;;;-1.37;66.85
60589;BME280;46421;48.610;9.334;2023-02-28T03:58:49;98581.72;;;-1.53;67.54
60589;BME280;46421;48.610;9.334;2023-02-28T04:01:17;98584.72;;;-1.45;67.28
60589;BME280;46421;48.610;9.334;2023-02-28T04:03:44;98584.72;;;-1.45;67.70
60589;BME280;46421;48.610;9.334;2023-02-28T04:06:16;98580.38;;;-1.60;67.91
60589;BME280;46421;48.610;9.334;2023-02-28T04:08:43;98574.28;;;-1.75;68.87
60589;BME280;46421;48.610;9.334;2023-02-28T04:11:34;98580.84;;;-1.37;68.12
60589;BME280;46421;48.610;9.334;2023-02-28T04:14:01;98572.13;;;-1.68;68.52
60589;BME280;46421;48.610;9.334;2023-02-28T04:16:27;98557.47;;;-1.55;67.56
60589;BME280;46421;48.610;9.334;2023-02-28T04:18:53;98585.47;;;-1.42;67.78
60589;BME280;46421;48.610;9.334;2023-02-28T04:21:18;98585.28;;;-1.39;68.41
60589;BME280;46421;48.610;9.334;2023-02-28T04:23:47;98585.25;;;-1.23;68.20
60589;BME280;46421;48.610;9.334;2023-02-28T04:26:12;98583.22;;;-1.49;68.55
60589;BME280;46421;48.610;9.334;2023-02-28T04:28:38;98588.22;;;-1.30;67.83
60589;BME280;46421;48.610;9.334;2023-02-28T04:31:04;98589.38;;;-1.66;69.53
60589;BME280;46421;48.610;9.334;2023-02-28T04:33:31;98577.41;;;-1.38;68.48
60589;BME280;46421;48.610;9.334;2023-02-28T04:35:58;98578.94;;;-1.50;69.18
60589;BME280;46421;48.610;9.334;2023-02-28T04:38:24;98563.75;;;-1.73;69.39
60589;BME280;46421;48.610;9.334;2023-02-28T04:40:49;98581.84;;;-1.40;68.50
60589;BME280;46421;48.610;9.334;2023-02-28T04:43:15;98576.91;;;-1.45;68.82
60589;BME280;46421;48.610;9.334;2023-02-28T04:45:40;98569.97;;;-1.30;68.19
60589;BME280;46421;48.610;9.334;2023-02-28T04:48:05;98575.56;;;-1.52;68.81
60589;BME280;46421;48.610;9.334;2023-02-28T04:50:31;98583.44;;;-1.37;69.19
60589;BME280;46421;48.610;9.334;2023-02-28T04:52:56;98584.97;;;-1.49;68.85
60589;BME280;46421;48.610;9.334;2023-02-28T04:55:21;98589.84;;;-1.43;69.08
60589;BME280;46421;48.610;9.334;2023-02-28T04:57:47;98582.13;;;-1.45;68.64
60589;BME280;46421;48.610;9.334;2023-02-28T05:00:13;98581.69;;;-1.37;68.79
60589;BME280;46421;48.610;9.334;2023-02-28T05:02:41;98580.16;;;-1.25;67.58
60589;BME280;46421;48.610;9.334;2023-02-28T05:05:07;98577.59;;;-1.27;68.53
60589;BME280;46421;48.610;9.334;2023-02-28T05:07:32;98571.81;;;-1.32;68.59
60589;BME280;46421;48.610;9.334;2023-02-28T05:09:57;98577.81;;;-1.46;69.15
60589;BME280;46421;48.610;9.334;2023-02-28T05:12:23;98573.72;;;-1.50;68.93
60589;BME280;46421;48.610;9.334;2023-02-28T05:14:48;98578.81;;;-1.32;69.13
60589;BME280;46421;48.610;9.334;2023-02-28T05:17:13;98580.53;;;-1.47;68.35
60589;BME280;46421;48.610;9.334;2023-02-28T05:19:39;98587.16;;;-1.41;69.08
60589;BME280;46421;48.610;9.334;2023-02-28T05:22:04;98581.34;;;-1.31;68.76
60589;BME280;46421;48.610;9.334;2023-02-28T05:24:29;98594.59;;;-1.50;68.84
60589;BME280;46421;48.610;9.334;2023-02-28T05:26:55;98591.31;;;-1.23;68.49
60589;BME280;46421;48.610;9.334;2023-02-28T05:29:21;98590.38;;;-1.22;68.22
60589;BME280;46421;48.610;9.334;2023-02-28T05:31:46;98599.53;;;-1.15;68.18
60589;BME280;46421;48.610;9.334;2023-02-28T05:34:12;98593.88;;;-1.37;68.63
60589;BME280;46421;48.610;9.334;2023-02-28T05:36:38;98594.50;;;-1.48;69.58
60589;BME280;46421;48.610;9.334;2023-02-28T05:39:06;98598.94;;;-1.34;69.76
60589;BME280;46421;48.610;9.334;2023-02-28T05:41:32;98599.09;;;-1.37;68.57
60589;BME280;46421;48.610;9.334;2023-02-28T05:43:57;98598.75;;;-1.31;69.12
60589;BME280;46421;48.610;9.334;2023-02-28T05:46:24;98600.66;;;-1.19;68.21
60589;BME280;46421;48.610;9.334;2023-02-28T05:48:50;98594.72;;;-1.06;67.82
60589;BME280;46421;48.610;9.334;2023-02-28T05:51:16;98586.72;;;-1.34;67.73
60589;BME280;46421;48.610;9.334;2023-02-28T05:53:42;98596.56;;;-1.39;68.59
60589;BME280;46421;48.610;9.334;2023-02-28T05:56:07;98572.09;;;-1.36;68.02
60589;BME280;46421;48.610;9.334;2023-02-28T05:58:33;98596.19;;;-1.17;67.69
60589;BME280;46421;48.610;9.334;2023-02-28T06:01:01;98601.94;;;-1.26;68.86
60589;BME280;46421;48.610;9.334;2023-02-28T06:03:44;98577.66;;;-1.42;68.57
60589;BME280;46421;48.610;9.334;2023-02-28T06:06:09;98602.47;;;-1.51;69.03
60589;BME280;46421;48.610;9.334;2023-02-28T06:08:34;98597.66;;;-1.43;67.94
60589;BME280;46421;48.610;9.334;2023-02-28T06:11:03;98606.22;;;-1.25;67.82
60589;BME280;46421;48.610;9.334;2023-02-28T06:13:28;98601.69;;;-1.37;68.44
60589;BME280;46421;48.610;9.334;2023-02-28T06:15:53;98598.75;;;-1.31;68.27
60589;BME280;46421;48.610;9.334;2023-02-28T06:18:19;98596.28;;;-1.18;68.21
60589;BME280;46421;48.610;9.334;2023-02-28T06:20:44;98608.03;;;-1.41;68.48
60589;BME280;46421;48.610;9.334;2023-02-28T06:23:09;98611.78;;;-1.31;69.11
60589;BME280;46421;48.610;9.334;2023-02-28T06:25:35;98614.78;;;-1.23;68.39
60589;BME280;46421;48.610;9.334;2023-02-28T06:28:00;98610.13;;;-1.32;68.89
60589;BME280;46421;48.610;9.334;2023-02-28T06:30:26;98624.72;;;-1.14;68.49
60589;BME280;46421;48.610;9.334;2023-02-28T06:32:55;98631.03;;;-1.18;67.88
60589;BME280;46421;48.610;9.334;2023-02-28T06:35:20;98627.31;;;-1.14;68.19
60589;BME280;46421;48.610;9.334;2023-02-28T06:37:45;98632.78;;;-1.18;67.81
60589;BME280;46421;48.610;9.334;2023-02-28T06:40:12;98626.00;;;-1.21;68.06
60589;BME280;46421;48.610;9.334;2023-02-28T06:42:38;98638.31;;;-1.08;68.27
60589;BME280;46421;48.610;9.334;2023-02-28T06:45:03;98641.81;;;-1.24;68.65
60589;BME280;46421;48.610;9.334;2023-02-28T06:47:34;98634.94;;;-1.25;68.75
60589;BME280;46421;48.610;9.334;2023-02-28T06:49:59;98636.44;;;-1.21;68.44
60589;BME280;46421;48.610;9.334;2023-02-28T06:52:26;98640.03;;;-0.93;68.07
60589;BME280;46421;48.610;9.334;2023-02-28T06:54:52;98629.75;;;-1.10;68.23
60589;BME280;46421;48.610;9.334;2023-02-28T06:57:27;98643.50;;;-0.92;67.73
60589;BME280;46421;48.610;9.334;2023-02-28T06:59:55;98635.03;;;-0.96;67.84
60589;BME280;46421;48.610;9.334;2023-02-28T07:02:21;98646.78;;;-0.89;68.10
60589;BME280;46421;48.610;9.334;2023-02-28T07:04:46;98656.94;;;-0.99;68.19
60589;BME280;46421;48.610;9.334;2023-02-28T07:07:11;98649.09;;;-0.99;67.52
60589;BME280;46421;48.610;9.334;2023-02-28T07:09:37;98653.03;;;-0.91;68.03
60589;BME280;46421;48.610;9.334;2023-02-28T07:12:02;98654.06;;;-0.94;67.46
60589;BME280;46421;48.610;9.334;2023-02-28T07:14:28;98649.50;;;-0.90;67.43
60589;BME280;46421;48.610;9.334;2023-02-28T07:16:53;98654.97;;;-0.95;67.39
60589;BME280;46421;48.610;9.334;2023-02-28T07:19:18;98654.63;;;-0.89;67.21
60589;BME280;46421;48.610;9.334;2023-02-28T07:21:44;98657.56;;;-1.25;68.27
60589;BME280;46421;48.610;9.334;2023-02-28T07:24:10;98657.00;;;-1.00;67.31
60589;BME280;46421;48.610;9.334;2023-02-28T07:26:35;98657.88;;;-1.16;68.02
60589;BME280;46421;48.610;9.334;2023-02-28T07:29:01;98654.88;;;-0.93;67.83
60589;BME280;46421;48.610;9.334;2023-02-28T07:31:27;98663.84;;;-0.98;67.63
60589;BME280;46421;48.610;9.334;2023-02-28T07:33:52;98658.56;;;-0.82;68.63
60589;BME280;46421;48.610;9.334;2023-02-28T07:36:19;98659.94;;;-0.90;67.63
60589;BME280;46421;48.610;9.334;2023-02-28T07:38:46;98664.50;;;-0.94;66.45
60589;BME280;46421;48.610;9.334;2023-02-28T07:41:16;98662.44;;;-0.58;65.84
60589;BME280;46421;48.610;9.334;2023-02-28T07:43:41;98678.00;;;-0.57;64.70
60589;BME280;46421;48.610;9.334;2023-02-28T07:46:09;98665.22;;;-0.92;64.57
60589;BME280;46421;48.610;9.334;2023-02-28T07:48:35;98666.41;;;-0.67;65.71
60589;BME280;46421;48.610;9.334;2023-02-28T07:51:00;98665.91;;;-0.74;65.01
60589;BME280;46421;48.610;9.334;2023-02-28T07:53:27;98667.50;;;-0.86;65.26
60589;BME280;46421;48.610;9.334;2023-02-28T07:55:57;98665.56;;;-0.82;64.68
60589;BME280;46421;48.610;9.334;2023-02-28T07:58:24;98668.53;;;-1.04;65.17
60589;BME280;46421;48.610;9.334;2023-02-28T08:00:50;98669.50;;;-0.75;63.87
60589;BME280;46421;48.610;9.334;2023-02-28T08:03:16;98667.16;;;-0.65;64.41
60589;BME280;46421;48.610;9.334;2023-02-28T08:05:42;98669.63;;;-0.47;63.83
60589;BME280;46421;48.610;9.334;2023-02-28T08:08:07;98675.94;;;-0.52;63.95
60589;BME280;46421;48.610;9.334;2023-02-28T08:10:33;98681.69;;;-0.30;63.23
60589;BME280;46421;48.610;9.334;2023-02-28T08:12:58;98669.25;;;-0.56;63.11
60589;BME280;46421;48.610;9.334;2023-02-28T08:15:24;98693.84;;;-0.60;63.16
60589;BME280;46421;48.610;9.334;2023-02-28T08:17:49;98689.66;;;-0.48;64.54
60589;BME280;46421;48.610;9.334;2023-02-28T08:20:14;98690.84;;;-0.68;63.58
60589;BME280;46421;48.610;9.334;2023-02-28T08:22:40;98687.16;;;-0.80;63.74
60589;BME280;46421;48.610;9.334;2023-02-28T08:25:07;98678.94;;;-0.58;63.68
60589;BME280;46421;48.610;9.334;2023-02-28T08:27:32;98685.44;;;-0.65;62.67
60589;BME280;46421;48.610;9.334;2023-02-28T08:29:58;98672.69;;;-0.55;62.46
60589;BME280;46421;48.610;9.334;2023-02-28T08:32:23;98688.09;;;-0.36;62.29
60589;BME280;46421;48.610;9.334;2023-02-28T08:34:48;98677.81;;;-0.54;62.86
60589;BME280;46421;48.610;9.334;2023-02-28T08:37:14;98676.25;;;-0.42;63.10
60589;BME280;46421;48.610;9.334;2023-02-28T08:39:39;98685.31;;;-0.33;62.71
60589;BME280;46421;48.610;9.334;2023-02-28T08:42:05;98685.97;;;-0.01;62.62
60589;BME280;46421;48.610;9.334;2023-02-28T08:44:30;98686.88;;;-0.45;62.37
60589;BME280;46421;48.610;9.334;2023-02-28T08:46:55;98687.34;;;-0.38;61.77
60589;BME280;46421;48.610;9.334;2023-02-28T08:49:21;98688.66;;;-0.31;62.02
60589;BME280;46421;48.610;9.334;2023-02-28T08:51:46;98695.84;;;-0.35;61.15
60589;BME280;46421;48.610;9.334;2023-02-28T08:54:11;98697.47;;;-0.03;62.51
60589;BME280;46421;48.610;9.334;2023-02-28T08:56:38;98699.44;;;-0.07;62.15
60589;BME280;46421;48.610;9.334;2023-02-28T08:59:03;98696.63;;;0.25;61.56
60589;BME280;46421;48.610;9.334;2023-02-28T09:01:29;98691.69;;;0.06;60.38
60589;BME280;46421;48.610;9.334;2023-02-28T09:03:55;98687.56;;;0.02;60.68
60589;BME280;46421;48.610;9.334;2023-02-28T09:06:22;98681.28;;;0.34;60.07
60589;BME280;46421;48.610;9.334;2023-02-28T09:08:48;98693.22;;;0.38;59.41
60589;BME280;46421;48.610;9.334;2023-02-28T09:11:14;98691.44;;;0.53;60.74
60589;BME280;46421;48.610;9.334;2023-02-28T09:13:40;98690.41;;;0.83;59.05
60589;BME280;46421;48.610;9.334;2023-02-28T09:16:07;98700.75;;;0.57;59.10
60589;BME280;46421;48.610;9.334;2023-02-28T09:18:36;98696.13;;;0.75;59.31
60589;BME280;46421;48.610;9.334;2023-02-28T09:21:04;98701.91;;;0.53;58.39
60589;BME280;46421;48.610;9.334;2023-02-28T09:23:30;98715.00;;;0.24;58.76
60589;BME280;46421;48.610;9.334;2023-02-28T09:25:55;98706.78;;;0.44;59.06
60589;BME280;46421;48.610;9.334;2023-02-28T09:28:21;98701.03;;;0.52;59.29
60589;BME280;46421;48.610;9.334;2023-02-28T09:30:49;98707.06;;;0.82;58.36
60589;BME280;46421;48.610;9.334;2023-02-28T09:33:16;98705.25;;;1.09;57.90
60589;BME280;46421;48.610;9.334;2023-02-28T09:35:42;98701.00;;;0.67;57.42
60589;BME280;46421;48.610;9.334;2023-02-28T09:38:08;98721.59;;;1.00;57.50
60589;BME280;46421;48.610;9.334;2023-02-28T09:40:49;98710.41;;;0.56;57.88
60589;BME280;46421;48.610;9.334;2023-02-28T09:43:16;98719.41;;;0.79;58.62
60589;BME280;46421;48.610;9.334;2023-02-28T09:45:48;98725.53;;;0.93;58.24
60589;BME280;46421;48.610;9.334;2023-02-28T09:48:19;98713.16;;;0.95;57.86
60589;BME280;46421;48.610;9.334;2023-02-28T09:50:57;98731.38;;;1.11;57.43
60589;BME280;46421;48.610;9.334;2023-02-28T09:53:28;98724.84;;;1.44;57.01
60589;BME280;46421;48.610;9.334;2023-02-28T09:56:01;98724.38;;;2.03;56.60
60589;BME280;46421;48.610;9.334;2023-02-28T10:01:10;98726.97;;;1.52;56.80
60589;BME280;46421;48.610;9.334;2023-02-28T10:03:43;98733.38;;;1.73;55.78
60589;BME280;46421;48.610;9.334;2023-02-28T10:06:16;98726.44;;;1.60;55.42
60589;BME280;46421;48.610;9.334;2023-02-28T10:08:50;98740.00;;;0.99;56.50
60589;BME280;46421;48.610;9.334;2023-02-28T10:11:17;98739.34;;;0.95;56.94
60589;BME280;46421;48.610;9.334;2023-02-28T10:14:02;98738.06;;;0.88;57.22
60589;BME280;46421;48.610;9.334;2023-02-28T10:16:37;98743.59;;;1.10;56.40
60589;BME280;46421;48.610;9.334;2023-02-28T10:24:33;98743.44;;;1.67;56.50
60589;BME280;46421;48.610;9.334;2023-02-28T10:27:09;98742.81;;;1.63;55.09
60589;BME280;46421;48.610;9.334;2023-02-28T10:29:40;98740.00;;;1.92;55.67
60589;BME280;46421;48.610;9.334;2023-02-28T10:32:08;98734.84;;;2.03;55.80
60589;BME280;46421;48.610;9.334;2023-02-28T10:34:36;98736.31;;;1.82;55.50
60589;BME280;46421;48.610;9.334;2023-02-28T10:37:03;98736.34;;;2.20;54.41
60589;BME280;46421;48.610;9.334;2023-02-28T10:39:42;98745.31;;;2.42;54.83
60589;BME280;46421;48.610;9.334;2023-02-28T10:44:46;98732.78;;;3.44;52.54
60589;BME280;46421;48.610;9.334;2023-02-28T10:47:16;98746.34;;;3.74;50.49
60589;BME280;46421;48.610;9.334;2023-02-28T10:49:49;98733.19;;;3.62;49.81
60589;BME280;46421;48.610;9.334;2023-02-28T10:52:37;98742.38;;;4.49;48.13
60589;BME280;46421;48.610;9.334;2023-02-28T10:55:35;98737.94;;;4.61;48.71
60589;BME280;46421;48.610;9.334;2023-02-28T10:58:01;98727.78;;;4.34;49.74
60589;BME280;46421;48.610;9.334;2023-02-28T11:00:32;98741.75;;;3.53;49.08
60589;BME280;46421;48.610;9.334;2023-02-28T11:02:59;98737.03;;;3.70;50.07
60589;BME280;46421;48.610;9.334;2023-02-28T11:05:28;98740.94;;;5.12;47.44
60589;BME280;46421;48.610;9.334;2023-02-28T11:07:58;98740.63;;;6.94;44.99
60589;BME280;46421;48.610;9.334;2023-02-28T11:10:26;98727.13;;;8.98;37.54
60589;BME280;46421;48.610;9.334;2023-02-28T11:12:55;98740.66;;;6.63;42.67
60589;BME280;46421;48.610;9.334;2023-02-28T11:15:26;98744.41;;;4.68;44.49
60589;BME280;46421;48.610;9.334;2023-02-28T11:18:01;98738.72;;;3.71;49.22
60589;BME280;46421;48.610;9.334;2023-02-28T11:20:32;98747.63;;;4.72;47.61
60589;BME280;46421;48.610;9.334;2023-02-28T11:23:00;98747.41;;;8.62;39.50
60589;BME280;46421;48.610;9.334;2023-02-28T11:25:30;98730.53;;;5.43;43.67
60589;BME280;46421;48.610;9.334;2023-02-28T11:27:59;98744.34;;;5.56;43.98
60589;BME280;46421;48.610;9.334;2023-02-28T11:30:35;98730.34;;;12.28;33.78
60589;BME280;46421;48.610;9.334;2023-02-28T11:34:01;98729.56;;;11.86;32.40
60589;BME280;46421;48.610;9.334;2023-02-28T11:36:08;98728.06;;;14.13;31.13
60589;BME280;46421;48.610;9.334;2023-02-28T11:38:36;98723.44;;;10.85;32.84
60589;BME280;46421;48.610;9.334;2023-02-28T11:44:15;98724.53;;;9.79;34.37
60589;BME280;46421;48.610;9.334;2023-02-28T11:53:00;98712.41;;;9.58;35.02
60589;BME280;46421;48.610;9.334;2023-02-28T11:55:36;98709.09;;;9.20;36.63
60589;BME280;46421;48.610;9.334;2023-02-28T11:58:33;98712.81;;;7.58;39.48
60589;BME280;46421;48.610;9.334;2023-02-28T12:01:21;98700.41;;;10.25;33.26
60589;BME280;46421;48.610;9.334;2023-02-28T12:04:28;98710.84;;;6.92;40.58
60589;BME280;46421;48.610;9.334;2023-02-28T12:07:09;98704.81;;;7.88;38.60
60589;BME280;46421;48.610;9.334;2023-02-28T12:09:50;98711.72;;;6.52;41.66
60589;BME280;46421;48.610;9.334;2023-02-28T12:12:26;98705.03;;;7.37;39.06
60589;BME280;46421;48.610;9.334;2023-02-28T12:15:13;98701.75;;;10.55;34.50
60589;BME280;46421;48.610;9.334;2023-02-28T12:21:16;98684.97;;;12.45;30.57
60589;BME280;46421;48.610;9.334;2023-02-28T12:26:23;98680.00;;;13.74;31.26
60589;BME280;46421;48.610;9.334;2023-02-28T12:29:10;98682.50;;;13.29;28.84
60589;BME280;46421;48.610;9.334;2023-02-28T12:31:46;98681.22;;;10.82;32.60
60589;BME280;46421;48.610;9.334;2023-02-28T12:34:19;98679.50;;;12.78;30.96
60589;BME280;46421;48.610;9.334;2023-02-28T12:36:50;98674.16;;;12.78;30.11
60589;BME280;46421;48.610;9.334;2023-02-28T12:39:26;98674.81;;;11.43;32.64
60589;BME280;46421;48.610;9.334;2023-02-28T12:42:02;98671.75;;;13.61;29.01
60589;BME280;46421;48.610;9.334;2023-02-28T12:44:37;98667.56;;;12.57;30.52
60589;BME280;46421;48.610;9.334;2023-02-28T12:47:10;98667.50;;;13.52;30.10
60589;BME280;46421;48.610;9.334;2023-02-28T12:49:45;98667.94;;;10.90;32.49
60589;BME280;46421;48.610;9.334;2023-02-28T12:52:19;98659.59;;;11.93;32.25
60589;BME280;46421;48.610;9.334;2023-02-28T12:55:00;98663.63;;;12.45;32.00
60589;BME280;46421;48.610;9.334;2023-02-28T13:00:12;98648.09;;;13.11;30.94
60589;BME280;46421;48.610;9.334;2023-02-28T13:08:40;98645.84;;;10.90;34.38
60589;BME280;46421;48.610;9.334;2023-02-28T13:11:43;98645.91;;;9.86;34.98
60589;BME280;46421;48.610;9.334;2023-02-28T13:14:22;98647.25;;;9.90;36.95
60589;BME280;46421;48.610;9.334;2023-02-28T13:16:59;98642.53;;;8.77;37.65
60589;BME280;46421;48.610;9.334;2023-02-28T13:19:27;98635.97;;;8.81;39.03
60589;BME280;46421;48.610;9.334;2023-02-28T13:21:55;98624.44;;;9.79;36.70
60589;BME280;46421;48.610;9.334;2023-02-28T13:24:54;98631.16;;;8.49;39.13
60589;BME280;46421;48.610;9.334;2023-02-28T13:27:35;98626.56;;;7.75;39.91
60589;BME280;46421;48.610;9.334;2023-02-28T13:44:22;98618.47;;;6.61;41.64
60589;BME280;46421;48.610;9.334;2023-02-28T13:57:42;98635.44;;;6.97;42.02
60589;BME280;46421;48.610;9.334;2023-02-28T14:03:15;98620.44;;;7.75;39.06
60589;BME280;46421;48.610;9.334;2023-02-28T14:05:44;98624.94;;;7.55;39.76
60589;BME280;46421;48.610;9.334;2023-02-28T14:08:20;98624.53;;;7.97;39.34
60589;BME280;46421;48.610;9.334;2023-02-28T14:10:49;98625.16;;;7.81;39.94
60589;BME280;46421;48.610;9.334;2023-02-28T14:15:58;98625.41;;;7.88;38.75
60589;BME280;46421;48.610;9.334;2023-02-28T14:18:32;98622.63;;;8.73;37.63
60589;BME280;46421;48.610;9.334;2023-02-28T14:24:16;98622.03;;;8.61;37.15
60589;BME280;46421;48.610;9.334;2023-02-28T14:27:11;98620.03;;;8.35;38.11
60589;BME280;46421;48.610;9.334;2023-02-28T14:37:51;98634.09;;;7.80;38.50
60589;BME280;46421;48.610;9.334;2023-02-28T14:40:27;98638.28;;;7.73;39.55
60589;BME280;46421;48.610;9.334;2023-02-28T14:43:05;98642.25;;;7.49;40.12
60589;BME280;46421;48.610;9.334;2023-02-28T14:45:35;98632.50;;;6.61;41.37
60589;BME280;46421;48.610;9.334;2023-02-28T14:48:04;98633.94;;;7.15;41.66
60589;BME280;46421;48.610;9.334;2023-02-28T14:50:36;98632.38;;;7.02;41.77
60589;BME280;46421;48.610;9.334;2023-02-28T14:53:02;98633.06;;;7.34;41.20
60589;BME280;46421;48.610;9.334;2023-02-28T14:55:35;98636.50;;;6.56;42.51
60589;BME280;46421;48.610;9.334;2023-02-28T14:58:03;98644.66;;;6.33;43.00